Ballina, New South Wales

2:17 AM AEST on September 23, 2014 (GMT +1000)
Ballina | Change Station
CLOSE
Current Station
Personal Weather Station
Location: Ballina, NSW
Elevation: 20 ft
Nearby Weather Stations

Elev 20 ft 28.87 °S, 153.55 °E | Updated 10 seconds ago

Clear
Clear
64.8 °F
Feels Like 64.8 °F
N
6.0
Wind Variable Wind from SSE
Gusts 9.0 mph

Today
High -- | Low -- °F
--% Chance of Precip.
Yesterday
High -- | Low -- °F
Precip. -- in
5:34 AM 5:42 PM
Waning Crescent, 2% visible
Pressure 30.36 in
Visibility 6.2 miles
Clouds
Dew Point 53 °F
Humidity 65%
Rainfall 0.00 in
Snow Depth Not available.
UV Not available.
Pollen Not available.
Air Quality Not available.
Flu Activity Not available.
METAR YLIS 221600Z AUTO 36003KT 9999 // NCD 08/08 Q1028

More Conditions Fewer Conditions

Pressure 30.36 in
Visibility 6.2 miles
Clouds
Dew Point 53 °F
Humidity 65%
Rainfall 0.00 in
Snow Depth Not available.
UV Not available.
Pollen Not available.
Air Quality Not available.
Flu Activity Not available.
METAR YLIS 221600Z AUTO 36003KT 9999 // NCD 08/08 Q1028

More Conditions Fewer Conditions

10-Day Weather Forecast

Almanac

Astronomy

Sep. 23, 2014 Rise Set
Actual Time 5:34 AM AEST 5:42 PM AEST
Civil Twilight 5:11 AM AEST 6:05 PM AEST
Nautical Twilight 4:43 AM AEST 6:33 PM AEST
Astronomical Twilight 4:16 AM AEST 7:01 PM AEST
Moon 4:41 AM AEST (9/23) 4:49 PM AEST (9/23)
Length of Visible Light 12h 54m
Length of Day
12h 07m
Tomorrow will be 1m 42s longer.
Waning Crescent, 2% of the Moon is Illuminated
Sep 22
Waning Crescent
Sep 24
New
Oct 1
First Quarter
Oct 8
Full
Oct 15
Last Quarter

Yesterday's Extremes

Country Highs Country Lows

Community

WunderPhotos

Upload Photos

1,755,477 photos uploaded!

WunderBlogs® & News

By Dr. Jeff Masters
Director of Meteorology, Weather Underground
By Kari Strenfel
Meteorologist, Weather Underground
By Christopher C. Burt
Weather Historian, Weather Underground
September 22, 2014
September 22, 2014
September 22, 2014

Nearby

Snow Depth

Not available.

Earthquake Activity

City Distance Mag. Time & Date
No recent earthquake activity has been reported nearby.
Minimum magnitude displayed is 2.5.

Coastal Water Temperatures

Place Temperature
No Stations Reporting

Nearby Weather Stations